PHNL Airport Information

Runway Information
Runway 04L Length 6952 ft width 150 ft
Elevation 10 ft Threshold 0 ft Heading 53
Runway 22R Length 6952 ft Width 150 ft
Elevation 10 ft Threshold 0 ft Heading 233
Runway 04R Length 9000 ft width 150 ft
Elevation 9 ft Threshold 0 ft Heading 53
Runway 22L Length 9000 ft Width 150 ft
Elevation 9 ft Threshold 0 ft Heading 233
Runway 04W Length 3000 ft width 150 ft
Elevation 0 ft Threshold 0 ft Heading 51
Runway 22W Length 3000 ft Width 150 ft
Elevation 0 ft Threshold 0 ft Heading 231
Runway 08L Length 12300 ft width 150 ft
Elevation 12 ft Threshold 0 ft Heading 90
Runway 26R Length 12300 ft Width 150 ft
Elevation 9 ft Threshold 0 ft Heading 270
Runway 08R Length 12000 ft width 200 ft
Elevation 10 ft Threshold 0 ft Heading 90
Runway 26L Length 12000 ft Width 200 ft
Elevation 10 ft Threshold 0 ft Heading 270
Runway 08W Length 5000 ft width 300 ft
Elevation 0 ft Threshold 0 ft Heading 91
Runway 26W Length 5000 ft Width 300 ft
Elevation 0 ft Threshold 0 ft Heading 271
Airport Frequencies
Airport Navaids
Airport Weather Information & NOTAM
ADDS - METARS form results

(0624 UTC 20 April 2018)
Data provider http://aviationweather.gov/adds/metars/
 
METAR text: PHNL 200553Z 06009KT 10SM FEW029 SCT050 BKN060 24/19 A3005 RMK AO2 RAB14E34 SLP175 P0000 60000 T02440194 10278 20239 51018
Conditions at: PHNL (HONOLULU , HI, US) observed 0553 UTC 20 April 2018
Temperature: 24.4°C (76°F)
Dewpoint: 19.4°C (67°F) [RH = 74%]
Pressure (altimeter): 30.05 inches Hg (1017.7 mb)
[Sea-level pressure: 1017.5 mb]
Winds: from the ENE (60 degrees) at 10 MPH (9 knots; 4.7 m/s)
Visibility: 10 or more miles (16+ km)
Ceiling: 6000 feet AGL
Clouds: few clouds at 2900 feet AGL
scattered clouds at 5000 feet AGL
broken clouds at 6000 feet AGL
Weather: no significant weather observed at this time

Forecast for: PHNL (HONOLULU , HI, US)
Text: PHNL 200539Z 2006/2112 06008KT P6SM VCSH SCT025 BKN050
Forecast period: 0600 to 2000 UTC 20 April 2018
Forecast type: FROM: standard forecast or significant change
Winds: from the ENE (60 degrees) at 9 MPH (8 knots; 4.2 m/s)
Visibility: 6 or more miles (10+ km)
Ceiling: 5000 feet AGL
Clouds: scattered clouds at 2500 feet AGL
broken clouds at 5000 feet AGL
Weather: VCSH  (showers in vicinity)
Forecast for: PHNL (HONOLULU , HI, US)
Text: PHNL 200539Z 2006/2112 06008KT P6SM VCSH SCT025 BKN050
Forecast period: 0600 to 2000 UTC 20 April 2018
Forecast type: FROM: standard forecast or significant change
Winds: from the ENE (60 degrees) at 9 MPH (8 knots; 4.2 m/s)
Visibility: 6 or more miles (10+ km)
Ceiling: 5000 feet AGL
Clouds: scattered clouds at 2500 feet AGL
broken clouds at 5000 feet AGL
Weather: VCSH  (showers in vicinity)
Forecast for: PHNL (HONOLULU , HI, US)
Text: PHNL 200539Z 2006/2112 06008KT P6SM VCSH SCT025 BKN050
Forecast period: 2000 UTC 20 April 2018 to 0400 UTC 21 April 2018
Forecast type: FROM: standard forecast or significant change
Winds: from the ENE (70 degrees) at 16 MPH (14 knots; 7.3 m/s)
gusting to 25 MPH (22 knots; 11.4 m/s)
Visibility: 6 or more miles (10+ km)
Ceiling: 25000 feet AGL
Clouds: few clouds at 2500 feet AGL
scattered clouds at 5000 feet AGL
broken clouds at 25000 feet AGL
Weather: no significant weather forecast for this period
Forecast for: PHNL (HONOLULU , HI, US)
Text: PHNL 200539Z 2006/2112 06008KT P6SM VCSH SCT025 BKN050
Forecast period: 2000 UTC 20 April 2018 to 0400 UTC 21 April 2018
Forecast type: FROM: standard forecast or significant change
Winds: from the ENE (70 degrees) at 16 MPH (14 knots; 7.3 m/s)
gusting to 25 MPH (22 knots; 11.4 m/s)
Visibility: 6 or more miles (10+ km)
Ceiling: 25000 feet AGL
Clouds: few clouds at 2500 feet AGL
scattered clouds at 5000 feet AGL
broken clouds at 25000 feet AGL
Weather: no significant weather forecast for this period
Forecast for: PHNL (HONOLULU , HI, US)
Text: PHNL 200539Z 2006/2112 06008KT P6SM VCSH SCT025 BKN050
Forecast period: 0400 to 1200 UTC 21 April 2018
Forecast type: FROM: standard forecast or significant change
Winds: from the ENE (60 degrees) at 12 MPH (10 knots; 5.2 m/s)
Visibility: 6 or more miles (10+ km)
Clouds: few clouds at 2500 feet AGL
scattered clouds at 5000 feet AGL
Weather: no significant weather forecast for this period
Forecast for: PHNL (HONOLULU , HI, US)
Text: PHNL 200539Z 2006/2112 06008KT P6SM VCSH SCT025 BKN050
Forecast period: 0400 to 1200 UTC 21 April 2018
Forecast type: FROM: standard forecast or significant change
Winds: from the ENE (60 degrees) at 12 MPH (10 knots; 5.2 m/s)
Visibility: 6 or more miles (10+ km)
Clouds: few clouds at 2500 feet AGL
scattered clouds at 5000 feet AGL
Weather: no significant weather forecast for this period